sensor_id;sensor_type;location;lat;lon;timestamp;P1;durP1;ratioP1;P2;durP2;ratioP2
63930;SDS011;50111;48.114;-2.066;2022-09-20T00:01:21;6.25;;;2.78;;
63930;SDS011;50111;48.114;-2.066;2022-09-20T00:03:49;6.60;;;2.97;;
63930;SDS011;50111;48.114;-2.066;2022-09-20T00:06:16;4.47;;;2.90;;
63930;SDS011;50111;48.114;-2.066;2022-09-20T00:08:43;5.90;;;2.90;;
63930;SDS011;50111;48.114;-2.066;2022-09-20T00:11:11;4.50;;;2.88;;
63930;SDS011;50111;48.114;-2.066;2022-09-20T00:13:38;4.88;;;2.95;;
63930;SDS011;50111;48.114;-2.066;2022-09-20T00:16:05;4.75;;;2.65;;
63930;SDS011;50111;48.114;-2.066;2022-09-20T00:26:40;4.13;;;2.58;;
63930;SDS011;50111;48.114;-2.066;2022-09-20T00:34:45;4.65;;;2.97;;
63930;SDS011;50111;48.114;-2.066;2022-09-20T00:37:30;5.30;;;2.90;;
63930;SDS011;50111;48.114;-2.066;2022-09-20T00:39:56;5.00;;;2.45;;
63930;SDS011;50111;48.114;-2.066;2022-09-20T00:42:25;6.18;;;2.78;;
63930;SDS011;50111;48.114;-2.066;2022-09-20T00:44:56;5.53;;;2.50;;
63930;SDS011;50111;48.114;-2.066;2022-09-20T00:49:55;4.88;;;2.83;;
63930;SDS011;50111;48.114;-2.066;2022-09-20T00:52:23;4.80;;;2.83;;
63930;SDS011;50111;48.114;-2.066;2022-09-20T00:54:49;3.97;;;2.55;;
63930;SDS011;50111;48.114;-2.066;2022-09-20T00:57:15;5.28;;;2.50;;
63930;SDS011;50111;48.114;-2.066;2022-09-20T00:59:42;4.10;;;2.53;;
63930;SDS011;50111;48.114;-2.066;2022-09-20T01:02:13;3.95;;;2.53;;
63930;SDS011;50111;48.114;-2.066;2022-09-20T01:04:41;5.73;;;2.70;;
63930;SDS011;50111;48.114;-2.066;2022-09-20T01:07:09;4.43;;;3.00;;
63930;SDS011;50111;48.114;-2.066;2022-09-20T01:09:36;7.53;;;2.63;;
63930;SDS011;50111;48.114;-2.066;2022-09-20T01:12:05;6.07;;;2.83;;
63930;SDS011;50111;48.114;-2.066;2022-09-20T01:14:32;3.80;;;2.70;;
63930;SDS011;50111;48.114;-2.066;2022-09-20T01:16:59;6.50;;;3.08;;
63930;SDS011;50111;48.114;-2.066;2022-09-20T01:19:33;4.97;;;2.90;;
63930;SDS011;50111;48.114;-2.066;2022-09-20T01:22:03;4.50;;;2.78;;
63930;SDS011;50111;48.114;-2.066;2022-09-20T01:24:37;4.97;;;2.80;;
63930;SDS011;50111;48.114;-2.066;2022-09-20T01:30:22;5.57;;;2.65;;
63930;SDS011;50111;48.114;-2.066;2022-09-20T01:32:23;4.50;;;2.90;;
63930;SDS011;50111;48.114;-2.066;2022-09-20T01:34:53;4.18;;;2.45;;
63930;SDS011;50111;48.114;-2.066;2022-09-20T01:42:35;4.60;;;2.53;;
63930;SDS011;50111;48.114;-2.066;2022-09-20T01:55:43;3.97;;;2.75;;
63930;SDS011;50111;48.114;-2.066;2022-09-20T02:00:57;4.70;;;2.65;;
63930;SDS011;50111;48.114;-2.066;2022-09-20T02:11:16;5.10;;;3.05;;
63930;SDS011;50111;48.114;-2.066;2022-09-20T02:26:34;7.57;;;2.80;;
63930;SDS011;50111;48.114;-2.066;2022-09-20T02:29:16;5.55;;;3.10;;
63930;SDS011;50111;48.114;-2.066;2022-09-20T02:32:10;5.28;;;3.00;;
63930;SDS011;50111;48.114;-2.066;2022-09-20T02:42:33;5.03;;;2.65;;
63930;SDS011;50111;48.114;-2.066;2022-09-20T02:45:03;5.22;;;2.63;;
63930;SDS011;50111;48.114;-2.066;2022-09-20T02:47:37;4.60;;;2.70;;
63930;SDS011;50111;48.114;-2.066;2022-09-20T02:50:48;4.43;;;2.67;;
63930;SDS011;50111;48.114;-2.066;2022-09-20T02:55:37;3.55;;;2.42;;
63930;SDS011;50111;48.114;-2.066;2022-09-20T03:00:52;4.00;;;2.40;;
63930;SDS011;50111;48.114;-2.066;2022-09-20T03:06:04;4.00;;;2.53;;
63930;SDS011;50111;48.114;-2.066;2022-09-20T03:11:09;5.63;;;2.95;;
63930;SDS011;50111;48.114;-2.066;2022-09-20T03:16:33;4.68;;;2.42;;
63930;SDS011;50111;48.114;-2.066;2022-09-20T03:29:33;3.45;;;2.08;;
63930;SDS011;50111;48.114;-2.066;2022-09-20T03:42:30;4.55;;;2.40;;
63930;SDS011;50111;48.114;-2.066;2022-09-20T03:50:38;2.88;;;2.30;;
63930;SDS011;50111;48.114;-2.066;2022-09-20T03:58:13;4.57;;;2.60;;
63930;SDS011;50111;48.114;-2.066;2022-09-20T04:08:44;3.83;;;2.28;;
63930;SDS011;50111;48.114;-2.066;2022-09-20T04:13:55;4.68;;;2.40;;
63930;SDS011;50111;48.114;-2.066;2022-09-20T04:21:30;5.72;;;2.42;;
63930;SDS011;50111;48.114;-2.066;2022-09-20T04:26:28;2.92;;;2.25;;
63930;SDS011;50111;48.114;-2.066;2022-09-20T04:29:21;5.05;;;2.90;;
63930;SDS011;50111;48.114;-2.066;2022-09-20T04:34:24;13.88;;;3.40;;
63930;SDS011;50111;48.114;-2.066;2022-09-20T04:37:21;5.55;;;3.38;;
63930;SDS011;50111;48.114;-2.066;2022-09-20T04:39:53;6.50;;;3.72;;
63930;SDS011;50111;48.114;-2.066;2022-09-20T05:00:19;6.88;;;2.63;;
63930;SDS011;50111;48.114;-2.066;2022-09-20T05:08:12;5.15;;;2.80;;
63930;SDS011;50111;48.114;-2.066;2022-09-20T05:16:21;6.78;;;3.63;;
63930;SDS011;50111;48.114;-2.066;2022-09-20T05:26:43;8.63;;;3.90;;
63930;SDS011;50111;48.114;-2.066;2022-09-20T05:31:55;17.35;;;6.30;;
63930;SDS011;50111;48.114;-2.066;2022-09-20T05:47:55;9.02;;;4.22;;
63930;SDS011;50111;48.114;-2.066;2022-09-20T05:50:33;7.05;;;3.58;;
63930;SDS011;50111;48.114;-2.066;2022-09-20T05:55:55;8.70;;;3.70;;
63930;SDS011;50111;48.114;-2.066;2022-09-20T06:01:12;6.95;;;3.63;;
63930;SDS011;50111;48.114;-2.066;2022-09-20T06:03:41;6.70;;;3.67;;
63930;SDS011;50111;48.114;-2.066;2022-09-20T06:06:13;12.43;;;3.17;;
63930;SDS011;50111;48.114;-2.066;2022-09-20T06:16:39;4.82;;;3.10;;
63930;SDS011;50111;48.114;-2.066;2022-09-20T06:21:55;6.88;;;3.25;;
63930;SDS011;50111;48.114;-2.066;2022-09-20T06:26:58;5.90;;;3.45;;
63930;SDS011;50111;48.114;-2.066;2022-09-20T06:29:31;6.22;;;3.40;;
63930;SDS011;50111;48.114;-2.066;2022-09-20T06:31:58;8.80;;;3.67;;
63930;SDS011;50111;48.114;-2.066;2022-09-20T06:34:24;9.25;;;3.20;;
63930;SDS011;50111;48.114;-2.066;2022-09-20T06:36:53;6.80;;;3.70;;
63930;SDS011;50111;48.114;-2.066;2022-09-20T06:42:37;9.30;;;3.60;;
63930;SDS011;50111;48.114;-2.066;2022-09-20T06:45:03;11.43;;;4.15;;
63930;SDS011;50111;48.114;-2.066;2022-09-20T06:47:29;10.15;;;3.97;;
63930;SDS011;50111;48.114;-2.066;2022-09-20T06:49:55;10.15;;;3.70;;
63930;SDS011;50111;48.114;-2.066;2022-09-20T06:52:22;6.72;;;3.85;;
63930;SDS011;50111;48.114;-2.066;2022-09-20T06:54:49;9.30;;;4.57;;
63930;SDS011;50111;48.114;-2.066;2022-09-20T06:57:18;7.25;;;4.03;;
63930;SDS011;50111;48.114;-2.066;2022-09-20T06:59:47;6.50;;;3.60;;
63930;SDS011;50111;48.114;-2.066;2022-09-20T07:02:13;8.65;;;4.32;;
63930;SDS011;50111;48.114;-2.066;2022-09-20T07:04:39;8.32;;;4.35;;
63930;SDS011;50111;48.114;-2.066;2022-09-20T07:07:05;11.85;;;4.88;;
63930;SDS011;50111;48.114;-2.066;2022-09-20T07:09:32;11.07;;;4.80;;
63930;SDS011;50111;48.114;-2.066;2022-09-20T07:11:58;11.07;;;4.50;;
63930;SDS011;50111;48.114;-2.066;2022-09-20T07:14:24;15.88;;;5.20;;
63930;SDS011;50111;48.114;-2.066;2022-09-20T07:16:51;9.05;;;5.07;;
63930;SDS011;50111;48.114;-2.066;2022-09-20T07:19:17;10.30;;;5.32;;
63930;SDS011;50111;48.114;-2.066;2022-09-20T07:21:43;13.60;;;5.50;;
63930;SDS011;50111;48.114;-2.066;2022-09-20T07:24:09;12.95;;;6.35;;
63930;SDS011;50111;48.114;-2.066;2022-09-20T07:26:35;13.45;;;6.05;;
63930;SDS011;50111;48.114;-2.066;2022-09-20T07:29:03;12.15;;;6.10;;
63930;SDS011;50111;48.114;-2.066;2022-09-20T07:31:32;10.85;;;5.72;;
63930;SDS011;50111;48.114;-2.066;2022-09-20T07:33:58;9.45;;;5.50;;
63930;SDS011;50111;48.114;-2.066;2022-09-20T07:36:24;9.27;;;5.18;;
63930;SDS011;50111;48.114;-2.066;2022-09-20T07:38:50;10.80;;;5.20;;
63930;SDS011;50111;48.114;-2.066;2022-09-20T07:41:17;9.63;;;5.13;;
63930;SDS011;50111;48.114;-2.066;2022-09-20T07:43:44;9.48;;;6.05;;
63930;SDS011;50111;48.114;-2.066;2022-09-20T07:46:10;8.48;;;5.65;;
63930;SDS011;50111;48.114;-2.066;2022-09-20T07:48:37;11.15;;;5.65;;
63930;SDS011;50111;48.114;-2.066;2022-09-20T07:58:21;8.82;;;5.05;;
63930;SDS011;50111;48.114;-2.066;2022-09-20T08:00:54;8.18;;;4.70;;
63930;SDS011;50111;48.114;-2.066;2022-09-20T08:03:20;5.90;;;4.30;;
63930;SDS011;50111;48.114;-2.066;2022-09-20T08:05:47;6.70;;;4.45;;
63930;SDS011;50111;48.114;-2.066;2022-09-20T08:08:14;7.13;;;4.03;;
63930;SDS011;50111;48.114;-2.066;2022-09-20T08:10:41;6.65;;;4.30;;
63930;SDS011;50111;48.114;-2.066;2022-09-20T08:13:08;6.60;;;4.30;;
63930;SDS011;50111;48.114;-2.066;2022-09-20T08:15:34;5.68;;;4.50;;
63930;SDS011;50111;48.114;-2.066;2022-09-20T08:18:00;7.65;;;4.80;;
63930;SDS011;50111;48.114;-2.066;2022-09-20T08:20:26;6.70;;;4.18;;
63930;SDS011;50111;48.114;-2.066;2022-09-20T08:22:52;6.68;;;4.10;;
63930;SDS011;50111;48.114;-2.066;2022-09-20T08:25:19;10.63;;;4.63;;
63930;SDS011;50111;48.114;-2.066;2022-09-20T08:27:54;7.97;;;4.18;;
63930;SDS011;50111;48.114;-2.066;2022-09-20T08:30:20;9.68;;;4.60;;
63930;SDS011;50111;48.114;-2.066;2022-09-20T08:32:47;9.00;;;4.53;;
63930;SDS011;50111;48.114;-2.066;2022-09-20T08:35:13;6.75;;;4.50;;
63930;SDS011;50111;48.114;-2.066;2022-09-20T08:37:41;7.55;;;4.40;;
63930;SDS011;50111;48.114;-2.066;2022-09-20T08:40:11;7.68;;;3.70;;
63930;SDS011;50111;48.114;-2.066;2022-09-20T08:42:39;6.55;;;4.05;;
63930;SDS011;50111;48.114;-2.066;2022-09-20T08:45:15;6.68;;;3.75;;
63930;SDS011;50111;48.114;-2.066;2022-09-20T08:47:45;8.05;;;4.35;;
63930;SDS011;50111;48.114;-2.066;2022-09-20T08:50:13;9.68;;;3.88;;
63930;SDS011;50111;48.114;-2.066;2022-09-20T08:52:43;6.57;;;3.85;;
63930;SDS011;50111;48.114;-2.066;2022-09-20T08:55:17;6.43;;;3.90;;
63930;SDS011;50111;48.114;-2.066;2022-09-20T19:52:03;5.43;;;2.70;;
63930;SDS011;50111;48.114;-2.066;2022-09-20T19:54:32;5.10;;;2.90;;
63930;SDS011;50111;48.114;-2.066;2022-09-20T19:56:58;4.65;;;2.42;;
63930;SDS011;50111;48.114;-2.066;2022-09-20T19:59:26;4.40;;;2.70;;
63930;SDS011;50111;48.114;-2.066;2022-09-20T20:01:53;6.80;;;3.00;;
63930;SDS011;50111;48.114;-2.066;2022-09-20T20:04:20;6.20;;;2.95;;
63930;SDS011;50111;48.114;-2.066;2022-09-20T20:07:02;5.28;;;3.38;;
63930;SDS011;50111;48.114;-2.066;2022-09-20T20:09:32;6.72;;;3.28;;
63930;SDS011;50111;48.114;-2.066;2022-09-20T20:12:03;4.43;;;2.72;;
63930;SDS011;50111;48.114;-2.066;2022-09-20T20:17:35;7.18;;;3.42;;
63930;SDS011;50111;48.114;-2.066;2022-09-20T20:22:51;6.03;;;3.10;;
63930;SDS011;50111;48.114;-2.066;2022-09-20T20:27:45;7.97;;;3.70;;
63930;SDS011;50111;48.114;-2.066;2022-09-20T20:30:11;6.93;;;3.38;;
63930;SDS011;50111;48.114;-2.066;2022-09-20T20:32:37;9.10;;;3.70;;
63930;SDS011;50111;48.114;-2.066;2022-09-20T20:35:04;9.63;;;3.67;;
63930;SDS011;50111;48.114;-2.066;2022-09-20T20:37:32;6.45;;;3.30;;
63930;SDS011;50111;48.114;-2.066;2022-09-20T20:39:58;7.53;;;3.63;;
63930;SDS011;50111;48.114;-2.066;2022-09-20T20:42:24;6.25;;;3.55;;
63930;SDS011;50111;48.114;-2.066;2022-09-20T20:44:51;7.53;;;3.90;;
63930;SDS011;50111;48.114;-2.066;2022-09-20T20:47:17;8.65;;;3.70;;
63930;SDS011;50111;48.114;-2.066;2022-09-20T20:49:43;6.35;;;3.50;;
63930;SDS011;50111;48.114;-2.066;2022-09-20T20:52:09;6.55;;;4.05;;
63930;SDS011;50111;48.114;-2.066;2022-09-20T20:54:35;7.25;;;3.35;;
63930;SDS011;50111;48.114;-2.066;2022-09-20T20:57:01;5.88;;;3.13;;
63930;SDS011;50111;48.114;-2.066;2022-09-20T20:59:27;6.18;;;3.17;;
63930;SDS011;50111;48.114;-2.066;2022-09-20T21:01:53;7.03;;;3.53;;
63930;SDS011;50111;48.114;-2.066;2022-09-20T21:04:20;7.63;;;3.10;;
63930;SDS011;50111;48.114;-2.066;2022-09-20T21:06:47;9.48;;;3.38;;
63930;SDS011;50111;48.114;-2.066;2022-09-20T21:09:14;7.07;;;2.85;;
63930;SDS011;50111;48.114;-2.066;2022-09-20T21:11:40;8.30;;;3.28;;
63930;SDS011;50111;48.114;-2.066;2022-09-20T21:14:08;6.18;;;2.85;;
63930;SDS011;50111;48.114;-2.066;2022-09-20T21:16:36;6.13;;;3.08;;
63930;SDS011;50111;48.114;-2.066;2022-09-20T21:19:03;5.57;;;3.05;;
63930;SDS011;50111;48.114;-2.066;2022-09-20T21:21:33;6.50;;;3.05;;
63930;SDS011;50111;48.114;-2.066;2022-09-20T21:24:00;5.75;;;3.00;;
63930;SDS011;50111;48.114;-2.066;2022-09-20T21:26:27;5.05;;;2.63;;
63930;SDS011;50111;48.114;-2.066;2022-09-20T21:28:56;6.70;;;3.08;;
63930;SDS011;50111;48.114;-2.066;2022-09-20T21:31:24;7.70;;;2.97;;
63930;SDS011;50111;48.114;-2.066;2022-09-20T21:33:50;7.00;;;3.22;;
63930;SDS011;50111;48.114;-2.066;2022-09-20T21:36:17;6.68;;;2.85;;
63930;SDS011;50111;48.114;-2.066;2022-09-20T21:38:44;5.00;;;3.22;;
63930;SDS011;50111;48.114;-2.066;2022-09-20T21:43:36;5.35;;;3.00;;
63930;SDS011;50111;48.114;-2.066;2022-09-20T21:46:09;4.40;;;2.60;;
63930;SDS011;50111;48.114;-2.066;2022-09-20T21:48:35;4.05;;;2.65;;
63930;SDS011;50111;48.114;-2.066;2022-09-20T21:51:02;5.28;;;3.38;;
63930;SDS011;50111;48.114;-2.066;2022-09-20T21:53:29;6.05;;;2.90;;
63930;SDS011;50111;48.114;-2.066;2022-09-20T21:55:56;5.72;;;3.28;;
63930;SDS011;50111;48.114;-2.066;2022-09-20T21:58:22;5.55;;;2.90;;
63930;SDS011;50111;48.114;-2.066;2022-09-20T22:01:02;6.38;;;2.83;;
63930;SDS011;50111;48.114;-2.066;2022-09-20T22:03:29;4.97;;;3.25;;
63930;SDS011;50111;48.114;-2.066;2022-09-20T22:05:55;4.93;;;3.03;;
63930;SDS011;50111;48.114;-2.066;2022-09-20T22:08:22;8.65;;;3.45;;
63930;SDS011;50111;48.114;-2.066;2022-09-20T22:10:57;5.97;;;2.60;;
63930;SDS011;50111;48.114;-2.066;2022-09-20T22:13:23;6.22;;;2.80;;
63930;SDS011;50111;48.114;-2.066;2022-09-20T22:15:49;4.53;;;2.90;;
63930;SDS011;50111;48.114;-2.066;2022-09-20T22:18:15;6.32;;;3.63;;
63930;SDS011;50111;48.114;-2.066;2022-09-20T22:20:41;6.20;;;3.20;;
63930;SDS011;50111;48.114;-2.066;2022-09-20T22:23:08;7.90;;;3.53;;
63930;SDS011;50111;48.114;-2.066;2022-09-20T22:25:34;8.25;;;3.33;;
63930;SDS011;50111;48.114;-2.066;2022-09-20T22:28:00;5.28;;;3.10;;
63930;SDS011;50111;48.114;-2.066;2022-09-20T22:30:26;6.28;;;3.22;;
63930;SDS011;50111;48.114;-2.066;2022-09-20T22:32:52;4.80;;;2.78;;
63930;SDS011;50111;48.114;-2.066;2022-09-20T22:35:18;7.35;;;3.55;;
63930;SDS011;50111;48.114;-2.066;2022-09-20T22:37:44;6.80;;;3.33;;
63930;SDS011;50111;48.114;-2.066;2022-09-20T22:40:10;8.95;;;3.08;;
63930;SDS011;50111;48.114;-2.066;2022-09-20T22:42:36;6.93;;;3.88;;
63930;SDS011;50111;48.114;-2.066;2022-09-20T22:45:02;7.25;;;3.53;;
63930;SDS011;50111;48.114;-2.066;2022-09-20T22:47:28;5.38;;;3.30;;
63930;SDS011;50111;48.114;-2.066;2022-09-20T22:49:54;6.32;;;3.50;;
63930;SDS011;50111;48.114;-2.066;2022-09-20T22:52:20;6.28;;;3.22;;
63930;SDS011;50111;48.114;-2.066;2022-09-20T22:54:46;7.20;;;3.80;;
63930;SDS011;50111;48.114;-2.066;2022-09-20T22:57:12;6.30;;;3.40;;
63930;SDS011;50111;48.114;-2.066;2022-09-20T22:59:38;6.35;;;3.42;;
63930;SDS011;50111;48.114;-2.066;2022-09-20T23:02:04;7.40;;;3.53;;
63930;SDS011;50111;48.114;-2.066;2022-09-20T23:04:30;5.45;;;3.17;;
63930;SDS011;50111;48.114;-2.066;2022-09-20T23:06:56;4.70;;;3.10;;
63930;SDS011;50111;48.114;-2.066;2022-09-20T23:09:23;7.70;;;3.58;;
63930;SDS011;50111;48.114;-2.066;2022-09-20T23:11:49;7.18;;;3.67;;
63930;SDS011;50111;48.114;-2.066;2022-09-20T23:14:16;6.35;;;3.45;;
63930;SDS011;50111;48.114;-2.066;2022-09-20T23:16:43;6.07;;;3.60;;
63930;SDS011;50111;48.114;-2.066;2022-09-20T23:19:09;7.68;;;3.70;;
63930;SDS011;50111;48.114;-2.066;2022-09-20T23:21:36;7.07;;;3.53;;
63930;SDS011;50111;48.114;-2.066;2022-09-20T23:24:03;5.95;;;3.20;;
63930;SDS011;50111;48.114;-2.066;2022-09-20T23:26:30;6.63;;;3.88;;
63930;SDS011;50111;48.114;-2.066;2022-09-20T23:28:58;7.68;;;3.67;;
63930;SDS011;50111;48.114;-2.066;2022-09-20T23:31:24;7.82;;;3.40;;
63930;SDS011;50111;48.114;-2.066;2022-09-20T23:33:54;6.60;;;3.85;;
63930;SDS011;50111;48.114;-2.066;2022-09-20T23:36:21;8.55;;;3.78;;
63930;SDS011;50111;48.114;-2.066;2022-09-20T23:38:47;7.90;;;4.03;;
63930;SDS011;50111;48.114;-2.066;2022-09-20T23:41:14;7.70;;;3.70;;
63930;SDS011;50111;48.114;-2.066;2022-09-20T23:43:41;5.75;;;3.25;;
63930;SDS011;50111;48.114;-2.066;2022-09-20T23:46:08;6.28;;;3.53;;
63930;SDS011;50111;48.114;-2.066;2022-09-20T23:48:34;7.65;;;3.78;;
63930;SDS011;50111;48.114;-2.066;2022-09-20T23:51:01;7.20;;;3.53;;
63930;SDS011;50111;48.114;-2.066;2022-09-20T23:53:27;5.07;;;3.10;;
63930;SDS011;50111;48.114;-2.066;2022-09-20T23:55:53;8.80;;;3.67;;
63930;SDS011;50111;48.114;-2.066;2022-09-20T23:58:19;6.57;;;3.83;;
